createdAt,value
2019-04-30T00:01:42.287Z,7.60
2019-04-30T00:04:15.756Z,5.97
2019-04-30T00:06:45.400Z,5.97
2019-04-30T00:09:19.038Z,6.57
2019-04-30T00:11:50.779Z,5.90
2019-04-30T00:14:18.654Z,5.33
2019-04-30T00:16:47.903Z,6.10
2019-04-30T00:19:19.693Z,6.27
2019-04-30T00:21:54.542Z,5.80
2019-04-30T00:24:19.204Z,5.83
2019-04-30T00:26:52.266Z,5.33
2019-04-30T00:29:26.788Z,5.27
2019-04-30T00:31:50.530Z,5.60
2019-04-30T00:34:19.814Z,6.60
2019-04-30T00:36:49.295Z,5.60
2019-04-30T00:39:18.546Z,5.83
2019-04-30T00:41:47.808Z,4.80
2019-04-30T00:44:19.871Z,6.70
2019-04-30T00:46:48.140Z,5.80
2019-04-30T00:49:22.947Z,6.50
2019-04-30T00:51:49.759Z,5.03
2019-04-30T00:54:22.488Z,5.27
2019-04-30T00:56:50.497Z,5.10
2019-04-30T00:59:19.886Z,4.93
2019-04-30T01:02:08.126Z,4.63
2019-04-30T01:04:42.662Z,4.77
2019-04-30T01:07:15.428Z,4.87
2019-04-30T01:09:49.747Z,4.50
2019-04-30T01:12:27.671Z,5.20
2019-04-30T01:14:49.851Z,5.03
2019-04-30T01:17:19.226Z,4.90
2019-04-30T01:19:51.168Z,5.53
2019-04-30T01:22:27.721Z,5.27
2019-04-30T01:24:50.541Z,5.03
2019-04-30T01:27:20.613Z,4.80
2019-04-30T01:29:49.915Z,4.50
2019-04-30T01:32:20.995Z,4.90
2019-04-30T01:34:53.875Z,5.20
2019-04-30T01:37:28.352Z,5.30
2019-04-30T01:39:52.253Z,5.20
2019-04-30T01:42:23.859Z,4.93
2019-04-30T01:44:53.986Z,4.90
2019-04-30T01:47:27.698Z,5.37
2019-04-30T01:49:56.020Z,5.43
2019-04-30T01:52:35.166Z,5.03
2019-04-30T01:55:00.570Z,5.97
2019-04-30T01:57:39.151Z,5.20
2019-04-30T02:00:33.853Z,5.20
2019-04-30T02:03:03.269Z,6.20
2019-04-30T02:05:32.763Z,5.10
2019-04-30T02:08:03.178Z,5.43
2019-04-30T02:10:32.629Z,5.10
2019-04-30T02:13:02.091Z,4.67
2019-04-30T02:15:31.456Z,5.00
2019-04-30T02:18:00.868Z,4.70
2019-04-30T02:20:30.248Z,5.70
2019-04-30T02:22:59.745Z,4.67
2019-04-30T02:25:31.276Z,5.27
2019-04-30T02:28:00.848Z,5.10
2019-04-30T02:30:30.756Z,5.60
2019-04-30T02:33:03.224Z,4.53
2019-04-30T02:35:54.719Z,5.60
2019-04-30T02:38:30.098Z,4.97
2019-04-30T02:41:02.023Z,4.80
2019-04-30T02:43:33.754Z,5.67
2019-04-30T02:46:05.049Z,4.90
2019-04-30T02:48:39.314Z,4.00
2019-04-30T02:51:10.308Z,5.27
2019-04-30T02:54:24.074Z,4.93
2019-04-30T02:57:13.403Z,5.50
2019-04-30T03:00:01.212Z,5.50
2019-04-30T03:02:31.642Z,5.00
2019-04-30T03:05:01.086Z,5.13
2019-04-30T03:07:30.894Z,4.50
2019-04-30T03:10:01.210Z,4.90
2019-04-30T03:12:33.619Z,5.60
2019-04-30T03:15:01.814Z,5.20
2019-04-30T03:17:50.775Z,3.67
2019-04-30T03:20:40.057Z,4.17
2019-04-30T03:23:09.795Z,6.43
2019-04-30T03:25:40.519Z,5.00
2019-04-30T03:28:10.092Z,5.30
2019-04-30T03:30:41.870Z,4.70
2019-04-30T03:33:12.699Z,4.50
2019-04-30T03:35:47.440Z,6.00
2019-04-30T03:38:12.448Z,5.30
2019-04-30T03:40:42.047Z,5.93
2019-04-30T03:43:11.348Z,4.90
2019-04-30T03:45:40.643Z,5.03
2019-04-30T03:48:10.395Z,5.00
2019-04-30T03:50:52.485Z,6.13
2019-04-30T03:53:10.931Z,6.10
2019-04-30T03:55:40.394Z,4.13
2019-04-30T03:58:12.446Z,4.40
2019-04-30T04:01:03.687Z,5.33
2019-04-30T04:03:35.632Z,4.60
2019-04-30T04:06:21.656Z,5.77
2019-04-30T04:09:00.240Z,3.87
2019-04-30T04:11:33.891Z,4.13
2019-04-30T04:14:22.669Z,4.13
2019-04-30T04:16:52.361Z,4.80
2019-04-30T04:19:21.739Z,3.70
2019-04-30T04:21:51.188Z,4.43
2019-04-30T04:24:20.697Z,3.93
2019-04-30T04:26:50.453Z,4.73
2019-04-30T04:29:19.958Z,3.60
2019-04-30T04:31:50.235Z,4.47
2019-04-30T04:34:19.996Z,5.10
2019-04-30T04:37:00.658Z,3.50
2019-04-30T04:39:29.979Z,4.87
2019-04-30T04:42:00.054Z,5.30
2019-04-30T04:44:29.575Z,3.80
2019-04-30T04:47:00.122Z,3.90
2019-04-30T04:49:30.565Z,4.50
2019-04-30T04:52:00.095Z,4.67
2019-04-30T04:54:30.005Z,4.20
2019-04-30T04:57:14.048Z,4.60
2019-04-30T04:59:30.452Z,4.07
2019-04-30T05:02:02.970Z,4.63
2019-04-30T05:04:32.453Z,4.10
2019-04-30T05:07:01.715Z,4.17
2019-04-30T05:09:31.040Z,4.50
2019-04-30T05:12:00.325Z,3.93
2019-04-30T05:14:29.626Z,5.20
2019-04-30T05:16:58.918Z,4.40
2019-04-30T05:19:28.650Z,4.47
2019-04-30T05:22:04.443Z,4.83
2019-04-30T05:24:41.823Z,4.70
2019-04-30T05:27:11.110Z,4.27
2019-04-30T05:29:40.319Z,4.30
2019-04-30T05:32:09.543Z,4.40
2019-04-30T05:34:38.953Z,4.37
2019-04-30T05:37:09.086Z,4.27
2019-04-30T05:39:39.044Z,4.70
2019-04-30T05:42:08.843Z,4.63
2019-04-30T05:44:39.565Z,4.80
2019-04-30T05:47:09.390Z,1.87
2019-04-30T05:49:39.037Z,4.13
2019-04-30T05:52:11.596Z,5.50
2019-04-30T05:54:41.567Z,5.27
2019-04-30T05:57:10.762Z,4.40
2019-04-30T05:59:39.924Z,4.43
2019-04-30T06:02:11.453Z,3.43
2019-04-30T06:04:42.224Z,4.27
2019-04-30T06:07:12.638Z,4.60
2019-04-30T06:09:56.799Z,4.13
2019-04-30T06:12:36.015Z,5.37
2019-04-30T06:15:20.166Z,3.73
2019-04-30T06:18:00.046Z,5.27
2019-04-30T06:20:22.571Z,4.30
2019-04-30T06:22:53.222Z,5.37
2019-04-30T06:25:31.168Z,4.10
2019-04-30T06:27:59.945Z,4.63
2019-04-30T06:30:40.184Z,5.17
2019-04-30T06:33:19.268Z,5.43
2019-04-30T06:35:50.218Z,5.50
2019-04-30T06:38:29.155Z,4.97
2019-04-30T06:40:58.966Z,4.60
2019-04-30T06:43:28.720Z,4.93
2019-04-30T06:45:59.008Z,4.57
2019-04-30T06:48:32.428Z,4.10
2019-04-30T06:51:02.197Z,5.10
2019-04-30T06:53:31.930Z,6.20
2019-04-30T06:56:01.146Z,5.20
2019-04-30T06:58:33.618Z,4.97
2019-04-30T07:01:03.118Z,4.60
2019-04-30T07:03:32.569Z,4.70
2019-04-30T07:06:01.879Z,4.53
2019-04-30T07:08:55.678Z,5.20
2019-04-30T07:11:29.304Z,6.10
2019-04-30T07:13:59.990Z,5.67
2019-04-30T07:16:29.939Z,5.57
2019-04-30T07:18:59.310Z,4.93
2019-04-30T07:21:31.357Z,5.13
2019-04-30T07:24:01.831Z,5.03
2019-04-30T07:26:31.137Z,5.20
2019-04-30T07:29:02.572Z,5.50
2019-04-30T07:31:31.402Z,5.33
2019-04-30T07:34:00.695Z,5.67
2019-04-30T07:36:45.342Z,4.60
2019-04-30T07:39:01.078Z,5.37
2019-04-30T07:41:31.350Z,4.90
2019-04-30T07:44:00.677Z,5.33
2019-04-30T07:46:30.178Z,4.97
2019-04-30T07:49:01.057Z,5.50
2019-04-30T07:51:32.212Z,5.53
2019-04-30T07:54:01.516Z,5.60
2019-04-30T07:56:37.280Z,4.80
2019-04-30T07:59:02.834Z,6.27
2019-04-30T08:01:32.574Z,6.80
2019-04-30T08:04:23.809Z,4.53
2019-04-30T08:06:53.345Z,5.33
2019-04-30T08:09:22.643Z,5.30
2019-04-30T08:11:51.968Z,5.90
2019-04-30T08:14:22.155Z,5.50
2019-04-30T08:16:52.114Z,5.20
2019-04-30T08:19:21.330Z,5.90
2019-04-30T08:21:50.499Z,6.37
2019-04-30T08:24:21.881Z,5.73
2019-04-30T08:26:51.130Z,5.70
2019-04-30T08:29:20.320Z,5.80
2019-04-30T08:31:49.608Z,5.53
2019-04-30T08:34:20.163Z,6.60
2019-04-30T08:36:49.578Z,7.20
2019-04-30T08:39:19.744Z,6.13
2019-04-30T08:41:49.333Z,5.83
2019-04-30T08:44:21.231Z,5.73
2019-04-30T08:46:50.794Z,5.90
2019-04-30T08:49:20.527Z,5.50
2019-04-30T08:51:50.397Z,5.80
2019-04-30T08:54:20.386Z,6.03
2019-04-30T08:56:50.348Z,5.93
2019-04-30T08:59:19.782Z,7.53
2019-04-30T09:01:49.089Z,7.20
2019-04-30T09:04:28.952Z,5.90
2019-04-30T09:06:59.979Z,6.47
2019-04-30T09:09:29.640Z,6.20
2019-04-30T09:11:59.382Z,5.73
2019-04-30T09:14:29.802Z,5.77
2019-04-30T09:16:59.551Z,6.37
2019-04-30T09:19:29.990Z,5.80
2019-04-30T09:21:59.579Z,6.70
2019-04-30T09:24:30.957Z,5.90
2019-04-30T09:27:01.069Z,7.80
2019-04-30T09:29:30.333Z,7.10
2019-04-30T09:31:59.843Z,6.83
2019-04-30T09:34:29.323Z,6.73
2019-04-30T09:36:59.027Z,7.13
2019-04-30T09:39:29.601Z,7.53
2019-04-30T09:42:03.228Z,7.40
2019-04-30T09:44:32.481Z,6.50
2019-04-30T09:47:01.669Z,6.20
2019-04-30T09:49:35.918Z,5.23
2019-04-30T09:52:05.802Z,7.50
2019-04-30T09:54:35.015Z,6.83
2019-04-30T09:57:08.753Z,7.17
2019-04-30T09:59:38.851Z,6.37
2019-04-30T10:02:09.314Z,6.77
2019-04-30T10:04:39.785Z,8.10
2019-04-30T10:07:13.218Z,6.63
2019-04-30T10:09:42.464Z,7.30
2019-04-30T10:12:21.110Z,8.20
2019-04-30T10:14:50.666Z,7.83
2019-04-30T10:17:48.022Z,7.73
2019-04-30T10:20:18.860Z,6.70
2019-04-30T10:22:49.526Z,8.50
2019-04-30T10:25:20.857Z,7.17
2019-04-30T10:27:51.493Z,7.90
2019-04-30T10:30:23.874Z,6.63
2019-04-30T10:32:53.012Z,7.90
2019-04-30T10:35:22.377Z,8.10
2019-04-30T10:37:51.726Z,6.53
2019-04-30T10:40:21.024Z,5.93
2019-04-30T10:42:50.373Z,6.63
2019-04-30T10:45:26.137Z,6.43
2019-04-30T10:47:55.377Z,7.23
2019-04-30T10:50:25.864Z,8.37
2019-04-30T10:52:55.192Z,6.40
2019-04-30T10:55:24.457Z,6.40
2019-04-30T10:57:53.694Z,6.60
2019-04-30T11:00:38.940Z,6.60
2019-04-30T11:03:19.550Z,7.60
2019-04-30T11:05:41.356Z,6.93
2019-04-30T11:08:10.903Z,7.97
2019-04-30T11:10:40.249Z,6.67
2019-04-30T11:13:09.427Z,7.20
2019-04-30T11:15:39.443Z,6.80
2019-04-30T11:18:09.665Z,6.90
2019-04-30T11:20:39.840Z,7.77
2019-04-30T11:23:14.501Z,7.60
2019-04-30T11:25:41.526Z,7.60
2019-04-30T11:28:11.815Z,8.67
2019-04-30T11:30:42.016Z,7.47
2019-04-30T11:33:11.673Z,9.50
2019-04-30T11:35:41.302Z,8.77
2019-04-30T11:38:10.664Z,9.30
2019-04-30T11:40:40.192Z,9.43
2019-04-30T11:43:09.573Z,9.20
2019-04-30T11:46:08.625Z,9.33
2019-04-30T11:48:38.692Z,7.40
2019-04-30T11:51:09.453Z,9.50
2019-04-30T11:53:38.979Z,10.40
2019-04-30T11:56:09.743Z,11.03
2019-04-30T11:58:39.266Z,9.40
2019-04-30T12:01:12.041Z,12.70
2019-04-30T12:03:41.834Z,10.70
2019-04-30T12:06:11.350Z,12.60
2019-04-30T12:08:59.697Z,9.57
2019-04-30T12:11:34.108Z,9.33
2019-04-30T12:14:03.430Z,9.77
2019-04-30T12:16:33.735Z,8.83
2019-04-30T12:19:06.054Z,8.47
2019-04-30T12:21:35.300Z,8.97
2019-04-30T12:24:04.547Z,7.93
2019-04-30T12:26:33.743Z,7.80
2019-04-30T12:29:03.069Z,8.30
2019-04-30T12:31:32.398Z,7.90
2019-04-30T12:34:01.637Z,7.33
2019-04-30T12:36:30.830Z,7.73
2019-04-30T12:39:00.052Z,8.60
2019-04-30T12:41:29.222Z,7.83
2019-04-30T12:43:58.519Z,7.60
2019-04-30T12:46:28.917Z,7.90
2019-04-30T12:49:11.014Z,8.00
2019-04-30T12:52:19.534Z,8.80
2019-04-30T12:54:58.007Z,8.57
2019-04-30T12:57:58.726Z,7.90
2019-04-30T13:00:25.065Z,8.83
2019-04-30T13:02:54.271Z,8.20
2019-04-30T13:05:23.540Z,8.70
2019-04-30T13:07:53.210Z,7.90
2019-04-30T13:10:23.591Z,7.10
2019-04-30T13:12:53.902Z,7.50
2019-04-30T13:15:23.645Z,7.50
2019-04-30T13:17:52.831Z,8.07
2019-04-30T13:20:24.088Z,8.30
2019-04-30T13:22:53.207Z,8.93
2019-04-30T13:25:32.514Z,8.70
2019-04-30T13:27:56.309Z,8.83
2019-04-30T13:30:29.654Z,8.40
2019-04-30T13:33:20.315Z,8.00
2019-04-30T13:35:48.962Z,7.60
2019-04-30T13:38:29.500Z,8.50
2019-04-30T13:41:24.391Z,7.60
2019-04-30T13:44:02.315Z,8.13
2019-04-30T13:46:31.697Z,8.40
2019-04-30T13:49:03.199Z,8.30
2019-04-30T13:51:32.797Z,8.23
2019-04-30T13:54:03.241Z,7.30
2019-04-30T13:56:32.987Z,8.27
2019-04-30T13:59:02.421Z,7.40
2019-04-30T14:01:32.088Z,6.83
2019-04-30T14:04:13.936Z,7.83
2019-04-30T14:06:58.960Z,8.33
2019-04-30T14:09:31.817Z,8.00
2019-04-30T14:12:01.708Z,7.70
2019-04-30T14:14:40.222Z,7.90
2019-04-30T14:17:09.460Z,7.60
2019-04-30T14:19:38.732Z,7.60
2019-04-30T14:22:08.998Z,8.27
2019-04-30T14:24:38.390Z,8.00
2019-04-30T14:27:09.030Z,7.13
2019-04-30T14:29:39.585Z,8.50
2019-04-30T14:32:09.358Z,7.93
2019-04-30T14:34:39.657Z,7.63
2019-04-30T14:37:09.186Z,7.40
2019-04-30T14:39:38.864Z,7.43
2019-04-30T14:42:10.716Z,7.10
2019-04-30T14:44:40.372Z,7.40
2019-04-30T14:47:30.976Z,7.80
2019-04-30T14:50:11.790Z,7.40
2019-04-30T14:52:50.811Z,7.03
2019-04-30T14:55:29.483Z,7.37
2019-04-30T14:58:16.628Z,7.57
2019-04-30T15:00:59.772Z,7.40
2019-04-30T15:03:30.003Z,8.65
2019-04-30T15:05:59.581Z,6.87
2019-04-30T15:08:33.091Z,6.40
2019-04-30T15:11:02.331Z,7.30
2019-04-30T15:13:31.713Z,7.43
2019-04-30T15:16:00.945Z,7.40
2019-04-30T15:18:30.315Z,8.47
2019-04-30T15:20:59.605Z,7.77
2019-04-30T15:23:57.965Z,7.53
2019-04-30T15:26:22.923Z,7.77
2019-04-30T15:28:49.271Z,7.70
2019-04-30T15:31:18.952Z,6.07
2019-04-30T15:34:02.803Z,6.77
2019-04-30T15:36:29.334Z,6.50
2019-04-30T15:39:08.453Z,6.57
2019-04-30T15:41:37.737Z,6.83
2019-04-30T15:44:13.758Z,6.90
2019-04-30T15:46:43.043Z,6.67
2019-04-30T15:49:12.241Z,7.90
2019-04-30T15:51:41.724Z,7.37
2019-04-30T15:54:10.901Z,6.83
2019-04-30T15:56:42.343Z,7.97
2019-04-30T15:59:28.984Z,7.33
2019-04-30T16:02:04.914Z,7.27
2019-04-30T16:04:51.754Z,7.30
2019-04-30T16:07:21.040Z,6.80
2019-04-30T16:10:10.523Z,6.47
2019-04-30T16:12:53.030Z,6.30
2019-04-30T16:15:22.677Z,7.50
2019-04-30T16:17:53.678Z,6.40
2019-04-30T16:20:23.069Z,6.47
2019-04-30T16:22:56.640Z,6.83
2019-04-30T16:25:30.327Z,6.50
2019-04-30T16:27:59.746Z,7.13
2019-04-30T16:30:29.052Z,6.70
2019-04-30T16:32:59.623Z,7.50
2019-04-30T16:35:29.535Z,6.77
2019-04-30T16:37:59.370Z,6.40
2019-04-30T16:40:30.869Z,7.10
2019-04-30T16:43:00.189Z,7.63
2019-04-30T16:45:30.582Z,6.60
2019-04-30T16:48:01.240Z,6.73
2019-04-30T16:50:32.707Z,6.47
2019-04-30T16:53:02.036Z,7.10
2019-04-30T16:55:31.334Z,6.70
2019-04-30T16:58:00.771Z,6.77
2019-04-30T17:00:30.855Z,6.72
2019-04-30T17:03:05.360Z,6.70
2019-04-30T17:05:45.336Z,6.87
2019-04-30T17:08:32.593Z,6.97
2019-04-30T17:11:33.004Z,6.27
2019-04-30T17:14:05.270Z,7.00
2019-04-30T17:16:35.073Z,6.90
2019-04-30T17:19:04.809Z,6.83
2019-04-30T17:21:34.260Z,6.70
2019-04-30T17:24:03.648Z,8.87
2019-04-30T17:26:33.373Z,7.57
2019-04-30T17:29:02.737Z,7.67
2019-04-30T17:31:35.223Z,6.37
2019-04-30T17:34:05.142Z,7.10
2019-04-30T17:36:34.397Z,7.20
2019-04-30T17:39:23.072Z,7.80
2019-04-30T17:41:53.468Z,8.77
2019-04-30T17:44:24.328Z,8.77
2019-04-30T17:46:55.510Z,9.23
2019-04-30T17:49:32.770Z,9.83
2019-04-30T17:52:09.004Z,9.50
2019-04-30T17:54:39.481Z,11.40
2019-04-30T17:57:10.592Z,9.97
2019-04-30T17:59:39.791Z,9.70
2019-04-30T18:02:11.028Z,10.07
2019-04-30T18:04:40.573Z,9.00
2019-04-30T18:07:14.587Z,10.60
2019-04-30T18:09:44.876Z,9.10
2019-04-30T18:12:14.360Z,9.53
2019-04-30T18:14:55.266Z,11.13
2019-04-30T18:17:57.525Z,12.93
2019-04-30T18:20:49.128Z,13.63
2019-04-30T18:23:48.578Z,11.77
2019-04-30T18:26:18.522Z,12.30
2019-04-30T18:28:51.770Z,14.40
2019-04-30T18:31:21.501Z,15.87
2019-04-30T18:33:51.445Z,16.00
2019-04-30T18:36:20.898Z,17.23
2019-04-30T18:38:50.304Z,18.00
2019-04-30T18:41:19.642Z,18.87
2019-04-30T18:43:48.978Z,12.90
2019-04-30T18:46:19.165Z,15.20
2019-04-30T18:48:49.423Z,14.40
2019-04-30T18:51:33.660Z,13.87
2019-04-30T18:53:50.918Z,15.17
2019-04-30T18:56:20.295Z,15.63
2019-04-30T18:58:49.795Z,15.00
2019-04-30T19:01:19.204Z,15.13
2019-04-30T19:03:49.221Z,15.70
2019-04-30T19:06:26.055Z,15.33
2019-04-30T19:09:19.670Z,16.13
2019-04-30T19:11:59.491Z,16.77
2019-04-30T19:14:41.603Z,18.30
2019-04-30T19:17:44.935Z,16.00
2019-04-30T19:20:29.845Z,27.00
2019-04-30T19:22:59.198Z,18.77
2019-04-30T19:25:28.964Z,20.20
2019-04-30T19:28:09.585Z,19.50
2019-04-30T19:30:31.037Z,21.53
2019-04-30T19:33:00.345Z,26.30
2019-04-30T19:35:29.699Z,26.73
2019-04-30T19:37:59.293Z,27.10
2019-04-30T19:40:28.949Z,27.90
2019-04-30T19:42:58.225Z,29.93
2019-04-30T19:45:27.622Z,30.50
2019-04-30T19:47:58.619Z,29.70
2019-04-30T19:50:27.742Z,31.63
2019-04-30T19:52:58.620Z,32.00
2019-04-30T19:55:28.692Z,32.23
2019-04-30T19:57:59.903Z,31.40
2019-04-30T20:00:31.064Z,35.10
2019-04-30T20:03:00.500Z,31.90
2019-04-30T20:05:29.741Z,37.70
2019-04-30T20:07:59.240Z,36.90
2019-04-30T20:10:29.126Z,38.70
2019-04-30T20:12:58.979Z,38.13
2019-04-30T20:15:29.853Z,38.27
2019-04-30T20:18:01.011Z,39.80
2019-04-30T20:20:30.249Z,43.17
2019-04-30T20:22:59.746Z,44.37
2019-04-30T20:25:29.184Z,42.23
2019-04-30T20:27:58.551Z,40.30
2019-04-30T20:30:29.229Z,40.50
2019-04-30T20:32:59.405Z,42.60
2019-04-30T20:35:28.964Z,43.67
2019-04-30T20:38:26.604Z,40.10
2019-04-30T20:41:00.226Z,38.57
2019-04-30T20:43:28.569Z,41.60
2019-04-30T20:45:58.349Z,41.10
2019-04-30T20:48:35.911Z,40.93
2019-04-30T20:51:13.460Z,39.53
2019-04-30T20:53:49.183Z,38.50
2019-04-30T20:56:23.244Z,44.37
2019-04-30T20:58:58.610Z,39.53
2019-04-30T21:01:30.360Z,39.27
2019-04-30T21:04:00.874Z,33.97
2019-04-30T21:06:30.441Z,35.00
2019-04-30T21:08:59.906Z,35.87
2019-04-30T21:11:36.286Z,33.20
2019-04-30T21:14:06.598Z,33.23
2019-04-30T21:16:36.322Z,32.00
2019-04-30T21:19:06.004Z,33.27
2019-04-30T21:21:41.436Z,32.87
2019-04-30T21:24:10.929Z,39.47
2019-04-30T21:26:40.425Z,36.60
2019-04-30T21:29:13.298Z,40.37
2019-04-30T21:32:09.142Z,36.83
2019-04-30T21:34:49.331Z,34.00
2019-04-30T21:37:21.050Z,30.60
2019-04-30T21:39:56.295Z,21.30
2019-04-30T21:42:27.679Z,28.83
2019-04-30T21:45:03.272Z,25.97
2019-04-30T21:47:34.586Z,26.87
2019-04-30T21:50:05.375Z,24.87
2019-04-30T21:52:34.976Z,26.80
2019-04-30T21:55:13.276Z,23.10
2019-04-30T21:57:43.771Z,24.43
2019-04-30T22:00:21.177Z,26.20
2019-04-30T22:02:50.561Z,23.37
2019-04-30T22:05:20.027Z,21.47
2019-04-30T22:07:51.162Z,21.80
2019-04-30T22:10:20.615Z,22.70
2019-04-30T22:12:50.264Z,20.90
2019-04-30T22:15:19.865Z,20.83
2019-04-30T22:17:49.709Z,21.07
2019-04-30T22:20:19.187Z,23.40
2019-04-30T22:22:49.041Z,24.30
2019-04-30T22:25:19.395Z,24.70
2019-04-30T22:27:50.237Z,22.77
2019-04-30T22:30:19.881Z,23.57
2019-04-30T22:32:49.665Z,24.10
2019-04-30T22:35:36.865Z,25.30
2019-04-30T22:38:09.608Z,30.67
2019-04-30T22:40:39.411Z,30.13
2019-04-30T22:43:09.386Z,27.47
2019-04-30T22:45:47.049Z,25.53
2019-04-30T22:48:16.339Z,23.07
2019-04-30T22:50:52.008Z,23.03
2019-04-30T22:53:21.551Z,22.70
2019-04-30T22:55:50.852Z,23.00
2019-04-30T22:58:20.096Z,20.37
2019-04-30T23:00:50.920Z,18.03
2019-04-30T23:03:31.907Z,17.77
2019-04-30T23:06:01.281Z,16.93
2019-04-30T23:08:30.536Z,16.67
2019-04-30T23:10:59.808Z,16.67
2019-04-30T23:13:28.990Z,16.50
2019-04-30T23:15:58.278Z,15.63
2019-04-30T23:18:27.502Z,14.90
2019-04-30T23:20:56.752Z,14.90
2019-04-30T23:23:26.136Z,15.30
2019-04-30T23:25:55.367Z,14.10
2019-04-30T23:28:24.646Z,13.60
2019-04-30T23:30:54.122Z,14.40
2019-04-30T23:33:23.302Z,13.30
2019-04-30T23:35:52.570Z,15.07
2019-04-30T23:38:21.732Z,14.63
2019-04-30T23:40:52.047Z,15.07
2019-04-30T23:43:21.746Z,15.00
2019-04-30T23:45:51.016Z,16.67
2019-04-30T23:48:20.288Z,14.43
2019-04-30T23:50:49.449Z,16.57
2019-04-30T23:53:18.643Z,14.93
2019-04-30T23:55:47.888Z,14.90
2019-04-30T23:58:17.277Z,12.57
